Pagrindinis puslapis
METAR-TAF:

METAR-TAF

Oro uostai :

Leonardo da Vinčio-Fjumičino oro uostas

Roma-Fjumičinas, Italija

platuma: 41-48N, ilguma: 012-14E, Aukštis: 2 m

Dabartinis oras

Ataskaita buvo paskelbta 42 minutes, ne 22:50 UTC
Vėjas 5 kt iš Šiaurės Rytų
Temperatūra 17°C
Drėgmė 63%
Slėgis 1021 hPa
Matomumas 10 km arba daugiau
nėra debesų žemiau 1500 m ir nėra kamuolinių lietaus debesų

METAR: LIRF 202250Z 04005KT CAVOK 17/10 Q1021 NOSIG

Laikas: 01:32 (23:32 UTC)

Prognozė

Ataskaita buvo paskelbta 6 valandos ir 32 minutes, ne 17:00 UTC
Prognozė galioja nuo 20 metu 18 UTC su 21 metu 24 UTC
Vėjas 5 kt nuo kintamojo kryptimis
Matomumas 10 km arba daugiau
Mažai debesys ne aukštis 3000 ft
Tapsmas
nuo 21 metu 08 UTC su 21 metu 10 UTC
Vėjas 13 kt iš Pietų
Laikinai
nuo 21 metu 21 UTC su 21 metu 24 UTC
lietus

TAF: LIRF 201700Z 2018/2124 VRB05KT 9999 FEW030 BECMG 2108/2110 17013KT TEMPO 2121/2124 SHRA

Orai ataskaitas ir orų prognozės (METAR, TAF).

turimą stotys yra geltonos ir raudonos taškus žemėlapyje.

Perkelti pele per norėdami pamatyti stoties vardą.

Tada spustelėkite, norėdami matyti oro stebėjimo ir prognozės.

Norėdami pakeisti žemėlapį: spustelėkite ant žalios mygtukų su juodo kryžiaus žemyn,; žalią mygtuką su brūkšneliu, jei norite nutolinti; arba žalių rodyklių gretimoms žemėlapius.


METAR-TAF: